createdAt,value
2022-10-23T00:09:01.998Z,5
2022-10-23T00:19:08.293Z,4
2022-10-23T00:29:15.200Z,5
2022-10-23T00:39:22.607Z,3
2022-10-23T00:49:32.452Z,4
2022-10-23T00:59:33.769Z,4
2022-10-23T01:09:39.981Z,3
2022-10-23T01:19:46.259Z,4
2022-10-23T01:29:51.013Z,4
2022-10-23T01:39:58.072Z,4
2022-10-23T01:50:04.273Z,4
2022-10-23T02:00:10.698Z,4
2022-10-23T02:10:15.682Z,4
2022-10-23T02:20:21.598Z,5
2022-10-23T02:30:29.241Z,3
2022-10-23T02:40:35.622Z,4
2022-10-23T02:50:41.250Z,5
2022-10-23T03:00:47.912Z,4
2022-10-23T03:10:54.455Z,5
2022-10-23T03:21:00.938Z,4
2022-10-23T03:31:06.523Z,3
2022-10-23T03:41:12.826Z,5
2022-10-23T03:51:19.754Z,4
2022-10-23T04:01:25.823Z,4
2022-10-23T04:11:31.507Z,5
2022-10-23T04:21:38.774Z,6
2022-10-23T04:31:44.351Z,3
2022-10-23T04:41:49.823Z,5
2022-10-23T04:51:56.827Z,3
2022-10-23T05:02:02.362Z,4
2022-10-23T05:12:06.148Z,3
2022-10-23T05:22:12.533Z,4
2022-10-23T05:42:22.958Z,3
2022-10-23T05:52:29.934Z,4
2022-10-23T06:02:36.195Z,4
2022-10-23T06:12:38.990Z,4
2022-10-23T06:22:45.992Z,3
2022-10-23T06:32:50.118Z,3
2022-10-23T06:42:56.465Z,3
2022-10-23T06:53:29.374Z,4
2022-10-23T07:03:24.730Z,7
2022-10-23T07:13:28.573Z,5
2022-10-23T07:23:35.117Z,4
2022-10-23T07:33:42.686Z,4
2022-10-23T07:43:46.924Z,5
2022-10-23T07:53:53.758Z,4
2022-10-23T08:04:00.173Z,4
2022-10-23T08:14:05.198Z,4
2022-10-23T08:24:11.706Z,3
2022-10-23T08:34:16.399Z,3
2022-10-23T08:44:21.957Z,4
2022-10-23T08:54:27.955Z,3
2022-10-23T09:04:33.106Z,3
2022-10-23T09:14:39.043Z,10
2022-10-23T10:05:13.158Z,5
2022-10-23T10:15:18.472Z,4
2022-10-23T10:25:23.774Z,4
2022-10-23T10:35:29.400Z,3
2022-10-23T10:45:34.909Z,3
2022-10-23T10:55:40.929Z,4
2022-10-23T11:05:46.572Z,3
2022-10-23T11:25:58.191Z,6
2022-10-23T11:36:05.172Z,4
2022-10-23T11:46:12.190Z,8
2022-10-23T11:56:17.435Z,5
2022-10-23T12:06:22.903Z,4
2022-10-23T12:16:33.434Z,7
2022-10-23T12:26:34.206Z,3
2022-10-23T12:36:38.557Z,4
2022-10-23T12:46:48.010Z,4
2022-10-23T12:56:47.819Z,7
2022-10-23T13:06:53.731Z,4
2022-10-23T13:16:59.253Z,8
2022-10-23T13:27:04.723Z,4
2022-10-23T13:37:09.581Z,4
2022-10-23T13:47:16.345Z,4
2022-10-23T13:57:22.393Z,6
2022-10-23T14:07:28.017Z,4
2022-10-23T14:17:34.489Z,5
2022-10-23T14:27:42.327Z,7
2022-10-23T14:37:57.108Z,5
2022-10-23T14:47:53.382Z,6
2022-10-23T16:08:41.186Z,14
2022-10-23T16:18:45.084Z,9
2022-10-23T16:28:51.238Z,10
2022-10-23T16:38:56.625Z,16
2022-10-23T16:49:03.729Z,13
2022-10-23T16:59:10.146Z,10
2022-10-23T17:09:15.985Z,9
2022-10-23T17:19:45.840Z,9
2022-10-23T17:29:40.519Z,9
2022-10-23T17:39:45.994Z,9
2022-10-23T17:49:52.351Z,10
2022-10-23T17:59:59.560Z,6
2022-10-23T18:10:05.551Z,8
2022-10-23T18:20:11.140Z,10
2022-10-23T18:30:16.954Z,11
2022-10-23T18:40:27.159Z,7
2022-10-23T18:50:27.813Z,10
2022-10-23T19:00:32.826Z,9
2022-10-23T19:10:39.391Z,9
2022-10-23T19:20:45.873Z,9
2022-10-23T19:30:54.129Z,9
2022-10-23T19:40:56.301Z,10
2022-10-23T19:51:02.501Z,10
2022-10-23T20:01:09.840Z,9
2022-10-23T20:11:20.359Z,8
2022-10-23T20:21:21.286Z,7
2022-10-23T20:31:27.257Z,9
2022-10-23T20:41:32.641Z,8
2022-10-23T20:51:37.392Z,7
2022-10-23T21:01:44.560Z,9
2022-10-23T21:11:47.675Z,12
2022-10-23T21:21:53.789Z,8
2022-10-23T21:32:01.721Z,8
2022-10-23T21:42:06.589Z,11
2022-10-23T21:52:15.135Z,11
2022-10-23T22:02:19.882Z,7
2022-10-23T22:12:25.417Z,9
2022-10-23T22:22:31.943Z,8
2022-10-23T22:32:39.994Z,9
2022-10-23T22:42:44.813Z,10
2022-10-23T22:52:50.348Z,9
2022-10-23T23:02:56.263Z,9
2022-10-23T23:13:01.192Z,9
2022-10-23T23:23:04.965Z,11
2022-10-23T23:33:11.325Z,8
2022-10-23T23:43:17.913Z,9
2022-10-23T23:53:23.524Z,10
